Terminal Aerodrome Forecast
Issued by NWS Sioux Falls, SD

Home | Current Version | Previous Version | Text Only | Print | Product List | Glossary Off
Versions: 1 2 3 4 5 6 7 8 9 10 11 12 13

000
FTUS43 KFSD 162300
TAFSUX
TAF
KSUX 162322Z 1700/1724 33021G31KT P6SM OVC015
     FM170500 34016G22KT P6SM OVC015
     FM171400 35013KT P6SM SCT015 SCT200
     FM171800 35008KT P6SM SKC=

USA.gov is the U.S. government's official web portal to all federal, state and local government web resources and services.